logo
Rechercher aéroport 
image banner adimage banner adimage banner ad
image banner ad

FADS - De Doorns

Situé à De Doorns, South Africa

ICAO - FADS, IATA -

Données fournies par Airmate  

Information générale

Coordonnées: S33°27'20" E19°41'9"
Élévation : 1627 feet MSL.
 
Voir autres Aéroports à Western Cape

Données opérationnelles

Special qualification required
Heure actuelle UTC:
Heure actuelle locale:
Météo à : - ( 0 km )
METAR: PABA 191507Z 07008KT 10SM SCT002 01/00 A3010 RMK AO2 FZRANO
Voir NOTAMs / SUP AIP / TFR affectant cet aéroport [VIEW]
Fréquences de communication: [VIEW]

Pistes:

Identifiant RWYQFULongueur (ft)Largeur (ft)SurfaceLDA (ft)
08177°328166SAND
26357°328166SAND

Coordonnées de l'aéroport

Adresse: De Doorns South Africa

Vue satellite de FADS